Time;durP1;ratioP1;P1;durP2;ratioP2;P2;SDS_P1;SDS_P2;PMS_P1;PMS_P2;Temp;Humidity;BMP_temperature;BMP_pressure;BME280_temperature;BME280_humidity;BME280_pressure;Samples;Min_cycle;Max_cycle;Signal;HPM_P1;HPM_P2
2023/08/11 00:00:24;;;;;;;7.57;3.83;;;;;;;17.90;100.00;100481.50;5067191;28;20032;-62
2023/08/11 00:02:50;;;;;;;8.05;3.20;;;;;;;17.89;100.00;100484.28;5069753;28;20483;-62
2023/08/11 00:05:19;;;;;;;6.10;3.33;;;;;;;17.86;100.00;100485.31;5087179;28;20028;-62
2023/08/11 00:07:46;;;;;;;5.05;3.30;;;;;;;17.83;100.00;100490.84;5086841;28;20063;-63
2023/08/11 00:10:14;;;;;;;6.38;3.40;;;;;;;17.74;100.00;100485.13;5083231;28;20384;-62
2023/08/11 00:12:40;;;;;;;6.78;3.20;;;;;;;17.76;100.00;100494.81;5090269;28;20032;-63
2023/08/11 00:15:09;;;;;;;7.00;3.83;;;;;;;17.76;100.00;100500.22;5086597;28;20039;-62
2023/08/11 00:17:35;;;;;;;7.60;3.47;;;;;;;17.76;100.00;100505.59;5072140;28;20028;-63
2023/08/11 00:20:00;;;;;;;5.25;3.47;;;;;;;17.73;100.00;100511.16;5072240;28;20737;-62
2023/08/11 00:22:26;;;;;;;6.00;3.28;;;;;;;17.73;100.00;100503.06;5071844;28;20142;-62
2023/08/11 00:24:51;;;;;;;4.80;3.38;;;;;;;17.71;100.00;100504.13;5074657;28;20028;-63
2023/08/11 00:27:17;;;;;;;6.97;3.33;;;;;;;17.63;100.00;100504.50;5071989;28;20797;-62
2023/08/11 00:29:42;;;;;;;5.43;3.10;;;;;;;17.56;100.00;100507.63;5073596;28;20388;-63
2023/08/11 00:32:07;;;;;;;6.00;3.63;;;;;;;17.50;100.00;100507.94;5092071;28;20028;-62
2023/08/11 00:34:33;;;;;;;7.82;3.67;;;;;;;17.50;100.00;100514.19;5090999;28;20027;-62
2023/08/11 00:36:58;;;;;;;6.35;3.55;;;;;;;17.47;100.00;100514.34;5078096;28;20834;-63
2023/08/11 00:39:24;;;;;;;7.40;4.03;;;;;;;17.47;100.00;100514.34;5069187;28;20034;-62
2023/08/11 00:41:50;;;;;;;6.00;3.53;;;;;;;17.49;100.00;100511.59;5068679;28;20103;-62
2023/08/11 00:44:16;;;;;;;6.40;3.67;;;;;;;17.56;100.00;100515.69;5071139;28;20020;-62
2023/08/11 00:46:43;;;;;;;7.40;3.60;;;;;;;17.57;100.00;100503.97;5085312;28;20039;-63
2023/08/11 00:49:09;;;;;;;7.55;3.83;;;;;;;17.56;100.00;100503.09;5089115;28;20024;-62
2023/08/11 00:51:35;;;;;;;7.45;3.97;;;;;;;17.51;100.00;100505.16;5088884;28;20067;-62
2023/08/11 00:54:01;;;;;;;6.45;3.85;;;;;;;17.49;100.00;100507.09;5081924;28;20056;-62
2023/08/11 00:56:26;;;;;;;6.35;3.97;;;;;;;17.47;100.00;100506.28;5091060;28;20028;-62
2023/08/11 00:58:53;;;;;;;8.80;4.80;;;;;;;17.43;100.00;100503.81;5087831;28;20020;-63
2023/08/11 01:01:19;;;;;;;8.23;4.82;;;;;;;17.42;100.00;100504.75;5073456;28;20066;-62
2023/08/11 01:03:47;;;;;;;8.77;5.57;;;;;;;17.40;100.00;100502.13;5074980;28;20016;-63
2023/08/11 01:06:18;;;;;;;9.48;5.60;;;;;;;17.37;100.00;100502.31;5085141;28;20060;-62
2023/08/11 01:08:55;;;;;;;8.77;4.90;;;;;;;17.37;100.00;100507.69;5069797;28;20044;-63
2023/08/11 01:11:31;;;;;;;8.13;4.80;;;;;;;17.36;100.00;100495.22;5070096;28;20083;-63
2023/08/11 01:14:09;;;;;;;8.90;4.10;;;;;;;17.39;100.00;100500.41;5089031;28;20049;-62
2023/08/11 01:16:36;;;;;;;6.20;3.90;;;;;;;17.33;100.00;100484.59;5073192;28;20771;-63
2023/08/11 01:19:05;;;;;;;6.38;3.75;;;;;;;17.35;100.00;100488.06;5078184;28;20027;-63
2023/08/11 01:21:35;;;;;;;6.07;3.95;;;;;;;17.37;100.00;100486.16;5080585;28;20029;-63
2023/08/11 01:24:02;;;;;;;8.75;4.22;;;;;;;17.34;100.00;100486.34;5069248;28;20111;-62
2023/08/11 01:26:28;;;;;;;6.80;4.03;;;;;;;17.35;100.00;100489.91;5082484;28;20039;-63
2023/08/11 01:28:54;;;;;;;5.45;3.65;;;;;;;17.33;100.00;100492.66;5071721;28;20033;-62
2023/08/11 01:31:19;;;;;;;6.95;3.85;;;;;;;17.31;100.00;100497.25;5068769;28;20150;-63
2023/08/11 01:33:45;;;;;;;4.93;3.53;;;;;;;17.28;100.00;100500.09;5072922;28;20028;-62
2023/08/11 01:36:10;;;;;;;7.45;4.45;;;;;;;17.21;100.00;100505.88;5080786;28;20058;-62
2023/08/11 01:38:36;;;;;;;5.85;3.50;;;;;;;17.16;100.00;100508.81;5068419;28;20067;-63
2023/08/11 01:41:01;;;;;;;5.60;3.78;;;;;;;17.13;100.00;100501.75;5070843;28;20062;-63
2023/08/11 01:43:29;;;;;;;6.05;3.83;;;;;;;17.14;100.00;100494.56;5068478;28;20027;-63
2023/08/11 01:45:55;;;;;;;6.40;3.60;;;;;;;17.11;100.00;100489.34;5068355;28;20459;-62
2023/08/11 01:48:22;;;;;;;6.82;4.00;;;;;;;17.07;100.00;100494.00;5070974;28;20135;-63
2023/08/11 01:50:47;;;;;;;7.75;4.28;;;;;;;17.04;100.00;100498.69;5082769;28;20070;-63
2023/08/11 01:53:13;;;;;;;6.13;3.75;;;;;;;17.02;100.00;100496.06;5081815;28;20056;-63
2023/08/11 01:55:40;;;;;;;7.25;3.67;;;;;;;17.00;100.00;100499.81;5073557;28;20048;-63
2023/08/11 01:58:06;;;;;;;7.07;3.70;;;;;;;17.04;100.00;100498.69;5069075;28;20031;-63
2023/08/11 02:00:31;;;;;;;6.55;3.90;;;;;;;17.04;100.00;100502.25;5070949;28;20032;-63
2023/08/11 02:02:57;;;;;;;5.78;3.50;;;;;;;16.92;100.00;100496.59;5069838;28;20128;-62
2023/08/11 02:05:24;;;;;;;8.10;3.90;;;;;;;16.95;100.00;100499.16;5077472;28;20050;-62
2023/08/11 02:07:51;;;;;;;7.95;4.03;;;;;;;16.93;100.00;100498.38;5045536;28;1147933;-63
2023/08/11 02:10:16;;;;;;;7.00;4.15;;;;;;;16.92;100.00;100505.53;5086602;28;20032;-62
2023/08/11 02:12:42;;;;;;;6.43;3.70;;;;;;;16.87;100.00;100502.22;5089882;28;20054;-63
2023/08/11 02:15:08;;;;;;;8.27;4.00;;;;;;;16.88;100.00;100513.84;5081008;28;20020;-62
2023/08/11 02:17:34;;;;;;;5.88;3.92;;;;;;;16.88;100.00;100503.09;5089007;28;20039;-63
2023/08/11 02:20:12;;;;;;;7.80;3.92;;;;;;;16.84;100.00;100499.69;5084253;28;20035;-61
2023/08/11 02:22:37;;;;;;;5.88;4.28;;;;;;;16.82;100.00;100503.38;5088629;28;20020;-63
2023/08/11 02:25:03;;;;;;;5.72;3.45;;;;;;;16.80;100.00;100500.78;5089231;28;20099;-63
2023/08/11 02:27:28;;;;;;;7.43;4.20;;;;;;;16.77;100.00;100498.25;5088212;28;20027;-63
2023/08/11 02:29:54;;;;;;;6.20;4.07;;;;;;;16.69;100.00;100502.25;5078559;28;20464;-62
2023/08/11 02:32:19;;;;;;;6.15;3.63;;;;;;;16.65;100.00;100495.31;5075159;28;20043;-62
2023/08/11 02:34:45;;;;;;;7.03;4.18;;;;;;;16.64;100.00;100496.25;5070218;28;20558;-63
2023/08/11 02:37:10;;;;;;;6.47;4.00;;;;;;;16.67;100.00;100493.44;5070799;28;20089;-61
2023/08/11 02:39:36;;;;;;;7.63;4.32;;;;;;;16.74;100.00;100494.84;5068466;28;20116;-62
2023/08/11 02:42:01;;;;;;;7.47;4.00;;;;;;;16.78;100.00;100491.06;5070903;28;20468;-63
2023/08/11 02:44:26;;;;;;;7.10;4.35;;;;;;;16.79;100.00;100488.31;5068856;28;20029;-63
2023/08/11 02:46:52;;;;;;;7.32;4.18;;;;;;;16.76;100.00;100491.16;5076884;28;20421;-63
2023/08/11 02:49:17;;;;;;;6.43;4.07;;;;;;;16.72;100.00;100491.38;5069446;28;20030;-63
2023/08/11 02:51:43;;;;;;;8.15;5.57;;;;;;;16.70;100.00;100487.91;5071681;28;20015;-63
2023/08/11 02:54:09;;;;;;;6.85;4.53;;;;;;;16.71;100.00;100485.13;5069842;28;20068;-63
2023/08/11 02:56:36;;;;;;;7.70;4.60;;;;;;;16.65;100.00;100476.53;5089261;28;20031;-63
2023/08/11 02:59:02;;;;;;;7.72;5.40;;;;;;;16.66;100.00;100483.63;5075717;28;20055;-63
2023/08/11 03:01:28;;;;;;;6.60;4.38;;;;;;;16.64;100.00;100485.50;5069232;28;20051;-63
2023/08/11 03:03:54;;;;;;;6.25;4.10;;;;;;;16.58;100.00;100493.88;5069029;28;20032;-63
2023/08/11 03:06:19;;;;;;;7.30;4.40;;;;;;;16.55;100.00;100488.66;5074905;28;20912;-63
2023/08/11 03:08:44;;;;;;;7.40;4.95;;;;;;;16.53;100.00;100490.53;5070668;28;20124;-63
2023/08/11 03:11:10;;;;;;;8.90;4.85;;;;;;;16.49;100.00;100494.34;5068898;28;20457;-63
2023/08/11 03:13:36;;;;;;;8.55;4.10;;;;;;;16.44;100.00;100499.88;5071146;28;20036;-63
2023/08/11 03:16:02;;;;;;;8.60;4.63;;;;;;;16.43;100.00;100505.34;5072885;28;20681;-63
2023/08/11 03:18:27;;;;;;;7.95;4.40;;;;;;;16.42;100.00;100514.34;5080409;28;20025;-63
2023/08/11 03:20:53;;;;;;;6.93;5.07;;;;;;;16.22;100.00;100468.78;5068527;28;20040;-63
2023/08/11 03:23:19;;;;;;;6.25;4.90;;;;;;;16.38;100.00;100496.63;5068155;28;20032;-63
2023/08/11 03:25:45;;;;;;;11.82;4.57;;;;;;;16.39;100.00;100509.97;5074593;28;20482;-63
2023/08/11 03:28:11;;;;;;;17.40;4.45;;;;;;;16.40;100.00;100505.50;5075472;28;20037;-63
2023/08/11 03:30:36;;;;;;;10.27;4.38;;;;;;;16.42;100.00;100503.59;5067662;28;20632;-61
2023/08/11 03:33:02;;;;;;;8.57;4.35;;;;;;;16.40;100.00;100511.72;5071369;28;20028;-63
2023/08/11 03:35:27;;;;;;;7.63;4.40;;;;;;;16.35;100.00;100503.03;5086589;28;20058;-63
2023/08/11 03:37:53;;;;;;;15.93;4.82;;;;;;;16.38;100.00;100504.69;5082940;28;20412;-63
2023/08/11 03:40:19;;;;;;;10.02;4.40;;;;;;;16.42;100.00;100508.97;5087218;28;20077;-63
2023/08/11 03:42:45;;;;;;;7.72;4.45;;;;;;;16.42;100.00;100508.97;5086913;28;20024;-63
2023/08/11 03:45:15;;;;;;;8.45;4.70;;;;;;;16.43;100.00;100513.38;5087630;28;20039;-63
2023/08/11 03:47:42;;;;;;;6.15;4.05;;;;;;;16.42;100.00;100508.97;5080078;28;20028;-63
2023/08/11 03:50:08;;;;;;;8.20;4.32;;;;;;;16.46;100.00;100514.16;5068328;28;20046;-62
2023/08/11 03:52:34;;;;;;;9.13;4.20;;;;;;;16.47;100.00;100520.41;5070286;28;20547;-63
2023/08/11 03:55:00;;;;;;;11.30;5.25;;;;;;;16.43;100.00;100519.63;5076404;28;20020;-63
2023/08/11 03:57:25;;;;;;;7.80;4.47;;;;;;;16.39;100.00;100525.25;5088705;28;20127;-63
2023/08/11 03:59:51;;;;;;;6.53;4.32;;;;;;;16.32;100.00;100531.84;5076506;28;20108;-63
2023/08/11 04:02:17;;;;;;;9.95;4.35;;;;;;;16.29;100.00;100526.63;5080189;28;20024;-63
2023/08/11 04:04:43;;;;;;;6.60;4.30;;;;;;;16.26;100.00;100522.25;5086189;28;20112;-63
2023/08/11 04:07:08;;;;;;;8.25;4.88;;;;;;;16.30;100.00;100528.34;5074153;28;20040;-63
2023/08/11 04:09:34;;;;;;;7.53;4.50;;;;;;;16.28;100.00;100508.75;5068259;28;20020;-63
2023/08/11 04:11:59;;;;;;;8.73;4.60;;;;;;;16.25;100.00;100511.59;5054703;28;20029;-63
2023/08/11 04:14:25;;;;;;;8.18;4.75;;;;;;;16.22;100.00;100512.63;5047895;28;20416;-63
2023/08/11 04:16:50;;;;;;;8.52;4.57;;;;;;;16.26;100.00;100513.34;5050050;28;20063;-63
2023/08/11 04:19:15;;;;;;;7.93;4.85;;;;;;;16.25;100.00;100525.00;5047574;28;20025;-63
2023/08/11 04:21:42;;;;;;;8.75;4.78;;;;;;;16.30;100.00;100520.28;5044997;28;20037;-63
2023/08/11 04:24:07;;;;;;;9.27;4.47;;;;;;;16.31;100.00;100527.44;5045698;28;20029;-63
2023/08/11 04:26:34;;;;;;;8.20;5.78;;;;;;;16.29;100.00;100535.53;5065128;28;20457;-63
2023/08/11 04:29:04;;;;;;;8.15;4.63;;;;;;;16.29;100.00;100534.69;5045587;28;20025;-63
2023/08/11 04:31:30;;;;;;;7.30;4.60;;;;;;;16.22;100.00;100523.34;5065766;28;20036;-63
2023/08/11 04:33:56;;;;;;;6.60;4.20;;;;;;;16.25;100.00;100533.94;5047606;28;20029;-63
2023/08/11 04:36:21;;;;;;;8.32;5.20;;;;;;;16.25;100.00;100533.94;5053967;28;20532;-63
2023/08/11 04:38:47;;;;;;;6.80;4.90;;;;;;;16.30;100.00;100536.41;5056365;28;20041;-63
2023/08/11 04:41:13;;;;;;;10.68;5.20;;;;;;;16.33;100.00;100530.88;5047890;28;20103;-63
2023/08/11 04:43:38;;;;;;;7.85;4.55;;;;;;;16.40;100.00;100537.72;5053446;28;20025;-63
2023/08/11 04:46:04;;;;;;;9.75;5.07;;;;;;;16.47;100.00;100542.75;5068032;28;20115;-63
2023/08/11 04:48:29;;;;;;;7.47;5.20;;;;;;;16.45;100.00;100535.66;5052606;28;20044;-63
2023/08/11 04:50:56;;;;;;;8.63;5.00;;;;;;;16.44;100.00;100542.84;5047883;28;20495;-62
2023/08/11 04:53:22;;;;;;;9.98;4.72;;;;;;;16.43;100.00;100543.81;5050001;28;20085;-63
2023/08/11 04:55:47;;;;;;;12.10;5.25;;;;;;;16.48;100.00;100540.94;5061685;28;20025;-62
2023/08/11 04:58:13;;;;;;;13.18;5.35;;;;;;;16.59;100.00;100544.84;5069471;28;20372;-63
2023/08/11 05:00:38;;;;;;;7.13;4.63;;;;;;;16.64;100.00;100547.28;5069440;28;20025;-63
2023/08/11 05:03:04;;;;;;;8.85;5.35;;;;;;;16.68;100.00;100547.09;5051376;28;20441;-63
2023/08/11 05:05:29;;;;;;;12.93;6.25;;;;;;;16.75;100.00;100544.97;5051408;28;20397;-63
2023/08/11 05:07:55;;;;;;;9.95;6.10;;;;;;;16.86;100.00;100546.16;5078949;28;20036;-63
2023/08/11 05:10:20;;;;;;;9.55;6.45;;;;;;;16.95;100.00;100553.75;5091019;28;20028;-63
2023/08/11 05:12:48;;;;;;;8.50;5.78;;;;;;;17.00;100.00;100553.56;5087824;28;20115;-63
2023/08/11 05:15:13;;;;;;;11.15;6.22;;;;;;;17.03;100.00;100556.94;5070575;28;20593;-63
2023/08/11 05:17:39;;;;;;;9.68;6.18;;;;;;;17.09;100.00;100551.25;5070150;28;20052;-62
2023/08/11 05:20:08;;;;;;;8.02;5.95;;;;;;;17.17;100.00;100561.63;5069625;28;20027;-63
2023/08/11 05:22:37;;;;;;;13.18;6.10;;;;;;;17.25;100.00;100567.47;5072422;28;20063;-63
2023/08/11 05:25:05;;;;;;;11.00;6.68;;;;;;;17.32;100.00;100566.22;5077600;28;20060;-63
2023/08/11 05:27:31;;;;;;;12.25;6.43;;;;;;;17.40;100.00;100564.00;5086668;28;20752;-62
2023/08/11 05:29:56;;;;;;;11.82;6.65;;;;;;;17.48;100.00;100559.13;5069836;28;20035;-63
2023/08/11 05:32:23;;;;;;;8.82;5.47;;;;;;;17.56;100.00;100567.66;5068505;28;20024;-63
2023/08/11 05:34:49;;;;;;;12.88;5.65;;;;;;;17.72;100.00;100571.31;5068746;28;20029;-62
2023/08/11 05:37:15;;;;;;;14.30;7.05;;;;;;;17.82;100.00;100569.00;5077532;28;20020;-63
2023/08/11 05:39:41;;;;;;;13.07;6.82;;;;;;;17.90;100.00;100570.31;5074734;28;20020;-62
2023/08/11 05:42:07;;;;;;;15.80;6.72;;;;;;;17.98;100.00;100570.78;5087472;28;20375;-63
2023/08/11 05:44:33;;;;;;;10.02;6.45;;;;;;;18.06;100.00;100573.91;5071104;28;20023;-63
2023/08/11 05:46:58;;;;;;;14.63;6.97;;;;;;;18.15;100.00;100576.09;5069711;28;20364;-63
2023/08/11 05:49:24;;;;;;;15.43;8.45;;;;;;;18.32;100.00;100577.88;5071815;28;20033;-63
2023/08/11 05:51:49;;;;;;;10.77;7.22;;;;;;;18.47;100.00;100579.75;5069816;28;20037;-64
2023/08/11 05:54:15;;;;;;;13.70;6.55;;;;;;;18.62;100.00;100578.88;5069939;28;20477;-64
2023/08/11 05:56:40;;;;;;;13.73;6.80;;;;;;;18.73;100.00;100581.00;5072548;28;20024;-64
2023/08/11 05:59:05;;;;;;;12.10;5.97;;;;;;;18.82;100.00;100578.63;5071652;28;20119;-64
2023/08/11 06:01:31;;;;;;;9.02;5.60;;;;;;;18.86;100.00;100577.47;5080801;28;20019;-64
2023/08/11 06:03:57;;;;;;;8.60;5.90;;;;;;;19.02;100.00;100585.56;5069986;28;20708;-63
2023/08/11 06:06:22;;;;;;;9.40;6.03;;;;;;;19.09;100.00;100573.47;5074817;28;20024;-63
2023/08/11 06:08:48;;;;;;;8.32;5.40;;;;;;;19.17;100.00;100576.59;5075679;28;20122;-62
2023/08/11 06:11:13;;;;;;;9.57;5.85;;;;;;;19.23;100.00;100566.31;5071708;28;20027;-63
2023/08/11 06:13:39;;;;;;;8.13;5.47;;;;;;;19.33;100.00;100577.44;5089034;28;20122;-63
2023/08/11 06:16:04;;;;;;;9.88;6.05;;;;;;;19.44;99.19;100580.34;5074970;28;20029;-63
2023/08/11 06:18:29;;;;;;;9.30;5.70;;;;;;;19.52;98.88;100576.25;5073493;28;20020;-64
2023/08/11 06:20:55;;;;;;;8.88;5.57;;;;;;;19.67;98.88;100576.28;5088845;28;20492;-62
2023/08/11 06:23:20;;;;;;;8.88;5.45;;;;;;;19.80;98.36;100578.16;5088553;28;20059;-63
2023/08/11 06:25:46;;;;;;;10.77;5.95;;;;;;;19.89;98.20;100572.19;5071338;28;20431;-63
2023/08/11 06:28:11;;;;;;;11.07;5.32;;;;;;;20.00;97.31;100580.47;5069052;28;20024;-64
2023/08/11 06:30:36;;;;;;;10.18;5.72;;;;;;;19.99;95.72;100578.75;5072032;28;20086;-64
2023/08/11 06:33:02;;;;;;;8.20;5.32;;;;;;;20.12;95.13;100585.13;5070473;28;20912;-64
2023/08/11 06:35:27;;;;;;;8.55;5.38;;;;;;;20.26;94.02;100576.19;5087027;28;20043;-64
2023/08/11 06:37:53;;;;;;;9.27;5.05;;;;;;;20.35;93.06;100581.88;5070771;28;20516;-64
2023/08/11 06:40:18;;;;;;;11.23;5.30;;;;;;;20.49;91.67;100583.69;5070412;28;20085;-64
2023/08/11 06:42:44;;;;;;;8.98;5.53;;;;;;;20.62;90.60;100588.22;5089388;28;20107;-64
2023/08/11 06:45:10;;;;;;;7.68;5.13;;;;;;;20.77;90.60;100589.91;5085195;28;20059;-63
2023/08/11 06:47:35;;;;;;;7.80;4.90;;;;;;;20.89;90.23;100577.41;5069435;28;20684;-64
2023/08/11 06:50:02;;;;;;;8.23;5.50;;;;;;;21.09;89.79;100579.69;5069257;28;20075;-64
2023/08/11 06:52:28;;;;;;;9.10;5.20;;;;;;;21.27;88.41;100583.03;5069004;28;20056;-63
2023/08/11 06:54:53;;;;;;;13.82;5.35;;;;;;;21.38;86.38;100575.03;5077052;28;20028;-64
2023/08/11 06:57:22;;;;;;;10.70;5.22;;;;;;;21.51;85.68;100582.22;5089466;28;20488;-63
2023/08/11 06:59:48;;;;;;;8.85;4.85;;;;;;;21.72;85.11;100588.00;5082629;28;20024;-64
2023/08/11 07:02:14;;;;;;;10.38;4.88;;;;;;;21.91;86.03;100592.06;5071102;28;20028;-64
2023/08/11 07:04:40;;;;;;;7.80;5.00;;;;;;;22.16;84.17;100596.59;5068569;28;20032;-63
2023/08/11 07:07:06;;;;;;;7.45;5.10;;;;;;;22.39;81.06;100587.69;5081478;28;20066;-62
2023/08/11 07:09:32;;;;;;;9.00;5.18;;;;;;;22.55;79.91;100592.94;5085616;28;20107;-64
2023/08/11 07:11:58;;;;;;;6.57;4.57;;;;;;;22.74;79.03;100596.03;5067721;28;20032;-64
2023/08/11 07:14:24;;;;;;;6.97;4.40;;;;;;;22.94;78.51;100595.41;5068549;28;20452;-64
2023/08/11 07:16:49;;;;;;;8.45;4.65;;;;;;;23.12;77.46;100589.50;5085794;28;20043;-64
2023/08/11 07:19:15;;;;;;;9.27;4.95;;;;;;;23.34;75.76;100586.91;5087143;28;20028;-64
2023/08/11 07:21:40;;;;;;;8.93;4.78;;;;;;;23.67;73.76;100593.47;5082397;28;20012;-64
2023/08/11 07:24:06;;;;;;;8.05;4.55;;;;;;;23.89;71.17;100593.50;5088329;28;20463;-64
2023/08/11 07:26:31;;;;;;;8.85;4.97;;;;;;;23.95;70.85;100591.22;5077083;28;20053;-64
2023/08/11 07:28:57;;;;;;;8.00;4.68;;;;;;;24.20;70.89;100595.59;5071323;28;20483;-64
2023/08/11 07:31:22;;;;;;;7.47;4.32;;;;;;;24.52;68.74;100596.59;5069930;28;20028;-64
2023/08/11 07:33:47;;;;;;;6.90;4.00;;;;;;;24.85;68.09;100598.44;5085959;28;20119;-64
2023/08/11 07:36:13;;;;;;;7.63;4.57;;;;;;;25.09;65.19;100591.84;5082568;28;20434;-63
2023/08/11 07:38:38;;;;;;;6.75;4.40;;;;;;;25.52;64.82;100589.13;5074351;28;20024;-63
2023/08/11 07:41:04;;;;;;;6.20;4.13;;;;;;;25.75;63.69;100591.63;5070202;28;20058;-64
2023/08/11 07:43:29;;;;;;;5.60;3.63;;;;;;;25.98;62.08;100596.94;5074859;28;20416;-64
2023/08/11 07:45:55;;;;;;;6.68;4.10;;;;;;;26.26;61.82;100599.03;5075037;28;20047;-64
2023/08/11 07:48:20;;;;;;;12.40;4.03;;;;;;;26.49;60.56;100601.41;5067459;28;20059;-64
2023/08/11 07:50:46;;;;;;;6.50;3.40;;;;;;;26.60;62.15;100600.47;5070261;28;20190;-64
2023/08/11 07:53:11;;;;;;;7.28;3.97;;;;;;;26.75;60.49;100604.59;5067436;28;20032;-64
2023/08/11 07:55:37;;;;;;;7.03;3.92;;;;;;;26.97;58.56;100599.78;5071646;28;20116;-64
2023/08/11 07:58:03;;;;;;;6.60;4.03;;;;;;;27.11;58.43;100595.78;5068357;28;20028;-64
2023/08/11 08:00:29;;;;;;;7.20;3.85;;;;;;;27.38;56.56;100598.72;5075816;28;20028;-63
2023/08/11 08:02:55;;;;;;;5.63;3.88;;;;;;;27.72;56.73;100602.78;5072208;28;20111;-63
2023/08/11 08:05:21;;;;;;;12.25;3.72;;;;;;;27.90;56.65;100606.53;5075352;28;20032;-63
2023/08/11 08:07:47;;;;;;;5.97;3.55;;;;;;;28.11;55.50;100607.22;5074128;28;20063;-63
2023/08/11 08:10:14;;;;;;;10.63;3.42;;;;;;;28.12;53.74;100605.34;5066765;28;20033;-64
2023/08/11 08:12:41;;;;;;;5.85;3.25;;;;;;;28.29;55.22;100613.66;5073658;28;20086;-63
2023/08/11 08:15:10;;;;;;;10.25;4.03;;;;;;;28.71;52.65;100613.25;5082819;28;20039;-63
2023/08/11 08:17:36;;;;;;;5.95;3.33;;;;;;;28.83;52.39;100612.06;5086389;28;20024;-63
2023/08/11 08:20:02;;;;;;;7.97;3.65;;;;;;;29.15;52.07;100624.28;5087385;28;20036;-62
2023/08/11 08:22:28;;;;;;;5.72;3.25;;;;;;;29.40;50.82;100611.72;5082668;28;20050;-64
2023/08/11 08:24:54;;;;;;;5.32;3.22;;;;;;;29.75;51.06;100617.25;5087357;28;20467;-64
2023/08/11 08:27:24;;;;;;;6.50;3.03;;;;;;;29.91;48.73;100611.03;5087218;28;20024;-63
2023/08/11 08:29:53;;;;;;;5.00;3.20;;;;;;;29.81;48.14;100611.13;5085302;28;20029;-64
2023/08/11 08:32:21;;;;;;;5.13;3.28;;;;;;;29.73;49.10;100616.53;5067584;28;20534;-63
2023/08/11 08:34:48;;;;;;;6.25;3.78;;;;;;;29.89;49.17;100613.94;5071131;28;20025;-63
2023/08/11 08:37:16;;;;;;;5.10;2.95;;;;;;;30.13;48.55;100614.13;5073053;28;20120;-63
2023/08/11 08:39:43;;;;;;;5.10;3.50;;;;;;;30.37;48.30;100619.84;5070873;28;20258;-62
2023/08/11 08:42:10;;;;;;;5.38;3.38;;;;;;;30.35;48.44;100619.13;5083656;28;20067;-63
2023/08/11 08:44:37;;;;;;;4.65;2.92;;;;;;;30.43;47.24;100624.66;5091290;28;20028;-63
2023/08/11 08:47:05;;;;;;;4.57;2.85;;;;;;;30.10;47.44;100608.13;5080727;28;20024;-62
2023/08/11 08:49:30;;;;;;;5.60;3.20;;;;;;;30.16;47.13;100615.69;5087345;28;20024;-63
2023/08/11 08:51:57;;;;;;;6.13;3.17;;;;;;;30.66;48.95;100620.34;5083751;28;20035;-63
2023/08/11 08:54:23;;;;;;;145.18;11.35;;;;;;;30.92;46.75;100621.19;5072527;28;20405;-63
2023/08/11 08:56:52;;;;;;;11.35;3.70;;;;;;;31.17;47.98;100619.41;5072547;28;20043;-63
2023/08/11 08:59:17;;;;;;;11.35;4.47;;;;;;;31.03;47.18;100617.28;5069770;28;20032;-64
2023/08/11 09:01:43;;;;;;;10.43;4.10;;;;;;;31.27;46.29;100624.78;5072188;28;20073;-62
2023/08/11 09:04:10;;;;;;;296.52;61.42;;;;;;;31.26;46.43;100612.91;5069911;28;20598;-63
2023/08/11 09:06:35;;;;;;;6.78;3.25;;;;;;;31.37;46.17;100614.53;5077787;28;20024;-63
2023/08/11 09:09:03;;;;;;;290.05;84.50;;;;;;;31.07;45.07;100612.34;5083227;28;20035;-62
2023/08/11 09:11:29;;;;;;;18.77;3.80;;;;;;;31.14;45.69;100610.66;5082856;28;20028;-63
2023/08/11 09:14:02;;;;;;;7.85;3.25;;;;;;;31.54;44.76;100610.75;5070054;28;20027;-63
2023/08/11 09:16:27;;;;;;;17.67;5.80;;;;;;;31.95;45.99;100605.16;5072233;28;20031;-64
2023/08/11 09:18:53;;;;;;;8.00;3.63;;;;;;;32.27;45.25;100598.78;5090468;28;20032;-63
2023/08/11 09:21:23;;;;;;;164.18;39.75;;;;;;;32.40;45.26;100590.84;5090406;28;20722;-63
2023/08/11 09:23:52;;;;;;;7.63;3.22;;;;;;;32.54;44.97;100600.31;5090680;28;20020;-64
2023/08/11 09:26:25;;;;;;;756.78;150.15;;;;;;;32.76;43.74;100594.00;5084508;28;20017;-64
2023/08/11 09:28:51;;;;;;;8.65;3.58;;;;;;;32.71;44.40;100596.44;5070138;28;20094;-63
2023/08/11 09:31:22;;;;;;;247.60;52.47;;;;;;;32.63;43.94;100599.22;5070005;28;20033;-64
2023/08/11 09:33:47;;;;;;;15.27;4.05;;;;;;;32.35;44.30;100601.50;5087561;28;20061;-63
2023/08/11 09:36:13;;;;;;;166.50;28.00;;;;;;;32.72;44.40;100595.41;5089436;28;20024;-64
2023/08/11 09:38:41;;;;;;;47.92;9.95;;;;;;;32.90;44.27;100591.41;5079090;28;20041;-64
2023/08/11 09:41:08;;;;;;;5.68;3.50;;;;;;;33.10;42.68;100597.31;5069737;28;20116;-63
2023/08/11 09:43:35;;;;;;;102.22;35.28;;;;;;;33.12;43.30;100600.78;5070393;28;20103;-64
2023/08/11 09:46:00;;;;;;;18.02;12.82;;;;;;;33.57;42.01;100597.25;5089688;28;20024;-63
2023/08/11 09:48:27;;;;;;;8.18;3.83;;;;;;;34.01;43.05;100603.84;5084652;28;20503;-64
2023/08/11 09:50:52;;;;;;;22.55;4.35;;;;;;;34.25;42.84;100601.69;5070174;28;20031;-64
2023/08/11 09:53:19;;;;;;;195.50;72.88;;;;;;;34.14;42.13;100593.00;5072783;28;20028;-63
2023/08/11 09:55:48;;;;;;;4.70;2.75;;;;;;;33.83;39.35;100600.50;5081520;28;20039;-64
2023/08/11 09:58:15;;;;;;;5.13;3.08;;;;;;;33.44;40.17;100594.25;5069627;28;20020;-64
2023/08/11 10:00:41;;;;;;;7.13;2.97;;;;;;;33.76;40.24;100600.38;5071205;28;20036;-64
2023/08/11 10:03:10;;;;;;;3.80;2.70;;;;;;;33.86;39.85;100598.22;5069025;28;20381;-63
2023/08/11 10:05:42;;;;;;;6.97;2.97;;;;;;;33.86;41.62;100595.47;5076716;28;20093;-63
2023/08/11 10:08:19;;;;;;;4.85;2.67;;;;;;;33.88;40.50;100598.03;5073275;28;20139;-64
2023/08/11 10:10:44;;;;;;;6.38;2.83;;;;;;;33.97;40.67;100591.47;5067400;28;20032;-64
2023/08/11 10:13:17;;;;;;;5.78;3.05;;;;;;;34.15;41.42;100587.28;5065363;28;20031;-64
2023/08/11 10:15:44;;;;;;;11.98;3.67;;;;;;;34.30;41.57;100590.94;5061830;28;20021;-64
2023/08/11 10:18:10;;;;;;;6.70;2.95;;;;;;;34.41;42.06;100584.16;5049000;28;20032;-64
2023/08/11 10:20:36;;;;;;;5.20;2.83;;;;;;;34.64;39.90;100584.91;5051824;28;20041;-70
2023/08/11 10:23:02;;;;;;;22.90;4.85;;;;;;;34.55;40.57;100586.03;5064500;28;20074;-63
2023/08/11 10:25:29;;;;;;;185.07;32.25;;;;;;;34.48;39.63;100579.59;5060448;28;20056;-66
2023/08/11 10:27:56;;;;;;;430.52;56.10;;;;;;;34.76;39.56;100577.88;5058814;28;20035;-61
2023/08/11 10:30:23;;;;;;;23.67;4.05;;;;;;;34.98;38.51;100579.66;5059235;28;20079;-61
2023/08/11 10:32:56;;;;;;;5.30;2.80;;;;;;;35.01;39.09;100575.69;5050423;28;20024;-62
2023/08/11 10:35:26;;;;;;;20.48;3.83;;;;;;;34.93;38.88;100567.47;5051546;28;20104;-62
2023/08/11 10:37:59;;;;;;;282.98;54.80;;;;;;;35.07;38.89;100570.22;5067279;28;20027;-63
2023/08/11 10:40:33;;;;;;;7.18;2.75;;;;;;;34.63;39.37;100563.00;5059581;28;20056;-62
2023/08/11 10:43:01;;;;;;;4.68;2.45;;;;;;;34.84;38.86;100557.53;5048532;28;20419;-62
2023/08/11 10:45:26;;;;;;;9.15;3.75;;;;;;;34.87;40.12;100557.16;5048805;28;20086;-62
2023/08/11 10:47:53;;;;;;;5.93;2.78;;;;;;;35.09;38.50;100557.03;5049490;28;20408;-62
2023/08/11 10:50:21;;;;;;;5.28;2.80;;;;;;;35.21;37.05;100549.94;5066746;28;20598;-62
2023/08/11 10:52:47;;;;;;;4.15;2.70;;;;;;;35.35;37.13;100551.84;5061717;28;20114;-63
2023/08/11 10:55:16;;;;;;;5.70;3.00;;;;;;;35.63;39.01;100547.28;5066544;28;20058;-62
2023/08/11 10:57:41;;;;;;;5.50;2.60;;;;;;;35.65;37.11;100547.91;5067267;28;20051;-62
2023/08/11 11:00:09;;;;;;;3.83;2.40;;;;;;;35.29;39.03;100538.75;5067249;28;20668;-62
2023/08/11 11:02:35;;;;;;;4.88;2.90;;;;;;;35.61;37.25;100554.91;5062158;28;20039;-62
2023/08/11 11:05:01;;;;;;;6.07;3.20;;;;;;;35.60;37.00;100552.34;5047966;28;20025;-62
2023/08/11 11:07:26;;;;;;;4.63;2.67;;;;;;;35.83;38.78;100551.06;5062768;28;20084;-62
2023/08/11 11:09:52;;;;;;;7.38;2.70;;;;;;;36.24;36.47;100556.78;5068768;28;20130;-62
2023/08/11 11:12:18;;;;;;;4.80;2.53;;;;;;;36.58;35.76;100550.41;5086518;28;20030;-63
2023/08/11 11:14:44;;;;;;;5.05;2.80;;;;;;;36.77;37.45;100544.13;5070210;28;20017;-62